Time;durP1;ratioP1;P1;durP2;ratioP2;P2;SDS_P1;SDS_P2;PMS_P1;PMS_P2;Temp;Humidity;BMP_temperature;BMP_pressure;BME280_temperature;BME280_humidity;BME280_pressure;Samples;Min_cycle;Max_cycle;Signal;HPM_P1;HPM_P2
2023/06/18 00:01:57;;;;;;;6.20;4.72;;;;;;;17.75;53.59;98964.81;5045427;28;20034;-73
2023/06/18 00:04:25;;;;;;;6.55;4.60;;;;;;;17.78;53.33;98966.38;5045997;28;20044;-73
2023/06/18 00:06:52;;;;;;;5.90;4.82;;;;;;;17.73;53.11;98929.28;5045940;28;20061;-71
2023/06/18 00:09:20;;;;;;;5.72;4.80;;;;;;;17.98;52.90;98969.94;5046007;28;20053;-72
2023/06/18 00:11:47;;;;;;;5.65;5.05;;;;;;;18.00;53.14;98965.28;5044949;28;20083;-72
2023/06/18 00:14:13;;;;;;;4.95;4.32;;;;;;;17.87;52.85;98938.75;5045843;28;20355;-72
2023/06/18 00:16:40;;;;;;;5.65;4.93;;;;;;;17.97;53.15;98963.72;5046032;28;20047;-73
2023/06/18 00:19:07;;;;;;;6.80;5.00;;;;;;;18.02;52.47;98966.81;5045726;28;20051;-73
2023/06/18 00:21:34;;;;;;;5.75;4.45;;;;;;;17.78;52.64;98936.91;5046288;28;20063;-73
2023/06/18 00:24:01;;;;;;;5.65;4.65;;;;;;;17.95;52.28;98961.16;5045975;28;20041;-72
2023/06/18 00:26:29;;;;;;;6.68;4.47;;;;;;;17.89;52.68;98968.94;5045670;28;20037;-72
2023/06/18 00:28:55;;;;;;;7.30;5.53;;;;;;;17.86;52.57;98962.00;5045609;28;20057;-72
2023/06/18 00:31:25;;;;;;;5.70;4.55;;;;;;;17.89;52.65;98964.41;5045794;28;20088;-73
2023/06/18 00:33:52;;;;;;;5.80;4.57;;;;;;;16.91;52.35;98803.66;5044704;28;20041;-72
2023/06/18 00:36:19;;;;;;;5.75;5.05;;;;;;;17.91;51.91;98961.59;5046008;28;20167;-72
2023/06/18 00:38:47;;;;;;;5.80;4.60;;;;;;;17.87;52.09;98974.44;5044844;28;20060;-75
2023/06/18 00:41:14;;;;;;;5.95;4.35;;;;;;;17.87;51.93;98973.59;5028455;28;20037;-73
2023/06/18 00:43:42;;;;;;;6.05;4.25;;;;;;;17.87;51.11;98968.22;5044614;28;20076;-73
2023/06/18 00:46:09;;;;;;;5.07;4.43;;;;;;;17.79;51.91;98968.06;5045349;28;20056;-72
2023/06/18 00:48:36;;;;;;;5.90;4.78;;;;;;;17.80;51.63;98972.44;5045935;28;20034;-73
2023/06/18 00:51:04;;;;;;;7.53;4.72;;;;;;;17.76;51.44;98973.72;5045522;28;20244;-73
2023/06/18 00:53:32;;;;;;;5.28;4.47;;;;;;;17.76;51.52;98971.03;5045860;28;20045;-73
2023/06/18 00:55:59;;;;;;;5.63;4.57;;;;;;;17.78;51.08;98969.06;5045595;28;20056;-73
2023/06/18 00:58:27;;;;;;;5.95;4.57;;;;;;;17.75;51.27;98969.34;5045291;28;20091;-73
2023/06/18 01:00:55;;;;;;;4.90;3.80;;;;;;;17.64;51.81;98967.63;5045561;28;20041;-73
2023/06/18 01:03:25;;;;;;;6.72;4.88;;;;;;;16.90;51.88;98879.56;5045594;28;20293;-73
2023/06/18 01:05:55;;;;;;;5.97;4.78;;;;;;;17.65;51.96;98963.13;5045304;28;20069;-72
2023/06/18 01:08:23;;;;;;;4.60;4.10;;;;;;;17.61;51.74;98960.72;5045282;28;20037;-72
2023/06/18 01:11:01;;;;;;;4.60;3.88;;;;;;;17.61;51.21;98957.19;5045143;28;20037;-73
2023/06/18 01:13:30;;;;;;;5.15;4.32;;;;;;;17.62;51.58;98959.72;5045461;28;20049;-72
2023/06/18 01:16:03;;;;;;;5.38;3.60;;;;;;;17.60;51.57;98953.63;5045205;28;20041;-73
2023/06/18 01:18:34;;;;;;;4.90;3.95;;;;;;;17.65;51.30;98955.09;5045277;28;20050;-72
2023/06/18 01:21:06;;;;;;;5.55;4.20;;;;;;;17.56;51.75;98954.06;5045435;28;20037;-73
2023/06/18 01:23:49;;;;;;;5.97;4.85;;;;;;;15.44;51.86;98601.03;5045082;28;20045;-73
2023/06/18 01:26:20;;;;;;;5.85;4.43;;;;;;;17.11;51.96;98906.25;5045664;28;20061;-73
2023/06/18 01:28:50;;;;;;;5.25;4.00;;;;;;;17.42;52.37;98947.25;5045083;28;20348;-73
2023/06/18 01:31:21;;;;;;;5.97;4.28;;;;;;;17.31;52.46;98932.16;5044950;28;20125;-73
2023/06/18 01:33:51;;;;;;;5.82;4.65;;;;;;;17.44;52.39;98950.63;5045255;28;20049;-73
2023/06/18 01:36:24;;;;;;;5.07;4.40;;;;;;;17.41;52.72;98944.72;5045026;28;20084;-72
2023/06/18 01:39:00;;;;;;;5.87;4.57;;;;;;;17.41;52.84;98944.72;5044035;28;20049;-72
2023/06/18 01:41:31;;;;;;;5.07;4.35;;;;;;;17.35;52.71;98956.81;5045201;28;20041;-73
2023/06/18 01:44:05;;;;;;;5.32;4.05;;;;;;;17.23;52.90;98952.56;5045501;28;20076;-72
2023/06/18 01:46:33;;;;;;;5.25;4.35;;;;;;;17.32;52.56;98954.41;5044926;28;20037;-72
2023/06/18 01:49:04;;;;;;;5.00;4.40;;;;;;;17.28;52.37;98955.69;5044085;28;20128;-73
2023/06/18 01:51:33;;;;;;;5.45;4.22;;;;;;;16.74;52.22;98889.94;5048294;28;20048;-72
2023/06/18 01:54:03;;;;;;;5.05;4.22;;;;;;;17.26;52.04;98950.47;5048547;28;20054;-73
2023/06/18 01:56:30;;;;;;;5.90;3.97;;;;;;;17.26;52.25;98954.97;5048759;28;20041;-73
2023/06/18 01:58:57;;;;;;;4.50;3.90;;;;;;;17.16;52.43;98954.91;5048768;28;20049;-73
2023/06/18 02:01:26;;;;;;;7.35;4.45;;;;;;;17.13;52.53;98959.69;5047603;28;20045;-72
2023/06/18 02:03:54;;;;;;;5.57;4.57;;;;;;;17.10;52.52;98959.94;5048398;28;20045;-73
2023/06/18 02:06:21;;;;;;;4.63;3.80;;;;;;;17.04;53.00;98960.50;5048861;28;20285;-72
2023/06/18 02:08:47;;;;;;;5.22;4.20;;;;;;;17.04;53.08;98966.69;5048820;28;20099;-73
2023/06/18 02:11:14;;;;;;;6.00;4.85;;;;;;;17.06;53.22;98963.88;5048245;28;20100;-72
2023/06/18 02:13:41;;;;;;;5.90;4.53;;;;;;;17.08;53.30;98960.09;5048203;28;20042;-73
2023/06/18 02:16:07;;;;;;;7.32;4.53;;;;;;;17.10;53.00;98962.63;5048412;28;20061;-74
2023/06/18 02:18:35;;;;;;;5.18;4.10;;;;;;;17.02;53.30;98949.91;5048089;28;20069;-72
2023/06/18 02:21:03;;;;;;;4.85;4.20;;;;;;;16.99;53.84;98966.25;5048348;28;20270;-74
2023/06/18 02:23:30;;;;;;;5.38;4.40;;;;;;;16.98;53.97;98962.72;5047994;28;20065;-73
2023/06/18 02:25:57;;;;;;;5.20;4.60;;;;;;;16.97;53.94;98963.72;5047952;28;20045;-72
2023/06/18 02:28:23;;;;;;;4.93;4.30;;;;;;;16.93;53.77;98970.31;5047896;28;20087;-72
2023/06/18 02:30:50;;;;;;;4.90;4.30;;;;;;;16.88;53.81;98969.88;5048437;28;20056;-72
2023/06/18 02:33:18;;;;;;;4.80;4.00;;;;;;;16.87;53.70;98972.69;5047734;28;20046;-72
2023/06/18 02:35:45;;;;;;;5.82;4.57;;;;;;;16.49;53.82;98909.94;5046944;28;20079;-72
2023/06/18 02:38:13;;;;;;;5.15;4.18;;;;;;;16.91;54.00;98966.06;5047486;28;20087;-73
2023/06/18 02:40:40;;;;;;;5.13;4.63;;;;;;;16.90;54.24;98962.53;5048191;28;20055;-72
2023/06/18 02:43:08;;;;;;;5.40;4.35;;;;;;;16.85;54.50;98972.81;5048131;28;20033;-72
2023/06/18 02:45:35;;;;;;;6.05;4.60;;;;;;;16.86;54.73;98965.63;5046710;28;20045;-72
2023/06/18 02:48:02;;;;;;;5.15;3.90;;;;;;;16.84;54.94;98971.13;5047806;28;20042;-72
2023/06/18 02:50:28;;;;;;;9.35;4.68;;;;;;;16.82;54.53;98977.59;5047509;28;20116;-72
2023/06/18 02:52:55;;;;;;;5.20;4.45;;;;;;;16.75;55.07;98977.25;5047371;28;20108;-72
2023/06/18 02:55:23;;;;;;;5.47;4.78;;;;;;;16.76;55.22;98975.44;5047514;28;20041;-73
2023/06/18 02:57:50;;;;;;;5.25;4.28;;;;;;;16.77;55.31;98985.16;5047379;28;20041;-72
2023/06/18 03:00:19;;;;;;;5.78;4.40;;;;;;;16.72;55.72;98980.22;5046873;28;20060;-72
2023/06/18 03:02:46;;;;;;;5.30;4.68;;;;;;;16.68;55.66;98978.78;5047555;28;20033;-72
2023/06/18 03:05:13;;;;;;;5.97;4.68;;;;;;;16.68;55.36;98976.09;5046409;28;20033;-72
2023/06/18 03:07:40;;;;;;;5.30;4.55;;;;;;;16.70;55.28;98976.81;5047736;28;20060;-72
2023/06/18 03:10:07;;;;;;;7.15;4.45;;;;;;;16.70;55.41;98979.50;5046200;28;20045;-72
2023/06/18 03:12:36;;;;;;;6.90;4.57;;;;;;;16.16;55.82;98899.44;5047036;28;20037;-72
2023/06/18 03:15:04;;;;;;;4.55;3.85;;;;;;;16.67;55.94;98982.44;5047600;28;20087;-72
2023/06/18 03:17:30;;;;;;;5.85;4.88;;;;;;;16.66;56.00;98980.72;5046754;28;20053;-72
2023/06/18 03:19:57;;;;;;;6.25;4.75;;;;;;;16.66;55.95;98983.41;5046971;28;20104;-72
2023/06/18 03:22:25;;;;;;;4.90;4.40;;;;;;;16.62;56.26;98973.91;5046063;28;20041;-73
2023/06/18 03:24:52;;;;;;;5.28;4.22;;;;;;;16.59;56.36;98974.19;5047453;28;20044;-72
2023/06/18 03:27:19;;;;;;;6.57;5.00;;;;;;;16.63;56.26;98975.63;5047083;28;20045;-72
2023/06/18 03:29:47;;;;;;;9.75;4.80;;;;;;;16.61;56.60;98975.75;5047037;28;20107;-72
2023/06/18 03:32:14;;;;;;;12.85;4.72;;;;;;;16.59;56.60;98969.69;5047217;28;20101;-71
2023/06/18 03:34:42;;;;;;;6.78;4.88;;;;;;;16.60;56.48;98966.03;5045809;28;20037;-72
2023/06/18 03:37:09;;;;;;;7.57;4.72;;;;;;;16.62;56.48;98968.56;5045755;28;20041;-73
2023/06/18 03:39:35;;;;;;;4.97;4.22;;;;;;;16.62;56.14;98972.09;5045511;28;20213;-72
2023/06/18 03:42:02;;;;;;;6.25;4.88;;;;;;;16.66;56.18;98972.72;5046759;28;20286;-73
2023/06/18 03:44:29;;;;;;;6.32;5.43;;;;;;;16.62;56.39;98979.25;5047020;28;20045;-72
2023/06/18 03:46:57;;;;;;;6.00;5.00;;;;;;;16.57;56.55;98982.34;5047012;28;20048;-72
2023/06/18 03:49:24;;;;;;;9.55;5.03;;;;;;;16.57;56.86;98985.00;5046663;28;20041;-73
2023/06/18 03:51:51;;;;;;;7.50;6.18;;;;;;;16.52;57.14;98983.72;5045689;28;20055;-73
2023/06/18 03:54:17;;;;;;;6.90;5.63;;;;;;;16.48;57.65;98990.31;5046254;28;20037;-72
2023/06/18 03:56:44;;;;;;;5.88;4.88;;;;;;;16.57;57.32;98989.50;5046488;28;20285;-72
2023/06/18 03:59:11;;;;;;;7.43;5.30;;;;;;;16.58;57.24;98992.06;5046394;28;20360;-72
2023/06/18 04:01:38;;;;;;;6.18;4.72;;;;;;;16.54;57.53;98987.09;5046417;28;20053;-72
2023/06/18 04:04:07;;;;;;;6.35;5.28;;;;;;;16.56;57.63;98990.50;5046668;28;20308;-72
2023/06/18 04:06:33;;;;;;;6.65;5.00;;;;;;;16.59;57.48;99001.78;5046307;28;20088;-72
2023/06/18 04:09:00;;;;;;;6.95;5.35;;;;;;;16.58;57.82;99004.59;5045146;28;20229;-72
2023/06/18 04:11:27;;;;;;;6.05;4.85;;;;;;;16.60;57.46;99000.81;5046180;28;20091;-72
2023/06/18 04:13:54;;;;;;;8.02;6.13;;;;;;;16.63;57.37;99002.38;5045569;28;20096;-72
2023/06/18 04:16:21;;;;;;;10.65;5.47;;;;;;;16.62;57.96;99004.19;5046421;28;20065;-72
2023/06/18 04:18:48;;;;;;;7.07;5.55;;;;;;;16.64;57.96;99015.63;5046198;28;20056;-72
2023/06/18 04:21:16;;;;;;;6.68;4.90;;;;;;;16.67;58.14;99012.72;5046377;28;20045;-72
2023/06/18 04:23:43;;;;;;;6.28;5.03;;;;;;;16.72;58.05;99012.31;5028721;28;20033;-72
2023/06/18 04:26:09;;;;;;;7.88;5.55;;;;;;;16.72;57.78;99006.97;5046007;28;20045;-73
2023/06/18 04:28:36;;;;;;;7.32;5.78;;;;;;;16.74;58.16;99010.34;5046263;28;20056;-72
2023/06/18 04:31:03;;;;;;;6.18;5.07;;;;;;;16.77;58.00;99004.75;5045637;28;20056;-72
2023/06/18 04:33:30;;;;;;;7.30;5.80;;;;;;;16.78;58.20;99001.09;5045553;28;20252;-72
2023/06/18 04:35:56;;;;;;;7.15;6.45;;;;;;;16.81;58.26;99006.16;5045635;28;20056;-72
2023/06/18 04:38:24;;;;;;;6.60;5.80;;;;;;;16.82;58.53;99002.50;5045214;28;20224;-72
2023/06/18 04:40:51;;;;;;;7.15;6.40;;;;;;;16.85;58.72;99001.41;5046022;28;20197;-72
2023/06/18 04:43:18;;;;;;;6.97;5.93;;;;;;;16.89;59.05;99013.53;5046050;28;20108;-72
2023/06/18 04:45:46;;;;;;;6.82;5.80;;;;;;;16.95;58.70;99000.47;5045587;28;20042;-72
2023/06/18 04:48:14;;;;;;;10.82;6.60;;;;;;;16.98;59.23;99000.19;5044662;28;20041;-72
2023/06/18 04:50:40;;;;;;;8.27;7.22;;;;;;;17.00;59.33;98998.25;5045929;28;20056;-72
2023/06/18 04:53:08;;;;;;;10.32;7.07;;;;;;;16.97;59.98;99006.53;5044490;28;20182;-72
2023/06/18 04:55:36;;;;;;;7.50;6.07;;;;;;;17.02;59.90;99002.63;5045393;28;20044;-72
2023/06/18 04:58:04;;;;;;;6.97;6.07;;;;;;;17.00;59.90;99005.41;5045947;28;20057;-72
2023/06/18 05:00:32;;;;;;;7.03;6.32;;;;;;;17.00;58.80;99002.75;5044470;28;20041;-72
2023/06/18 05:03:00;;;;;;;6.22;5.35;;;;;;;17.04;58.09;99008.69;5045495;28;20048;-72
2023/06/18 05:05:26;;;;;;;7.60;5.40;;;;;;;17.09;57.50;99004.63;5045600;28;20081;-72
2023/06/18 05:07:53;;;;;;;7.68;5.57;;;;;;;17.06;57.02;99012.06;5045795;28;20104;-72
2023/06/18 05:10:20;;;;;;;6.57;5.13;;;;;;;17.08;56.84;99010.09;5045807;28;20052;-72
2023/06/18 05:12:48;;;;;;;7.05;5.30;;;;;;;17.14;56.87;99014.94;5045269;28;20104;-72
2023/06/18 05:15:14;;;;;;;6.65;4.90;;;;;;;17.11;56.80;99021.41;5045747;28;20107;-73
2023/06/18 05:17:41;;;;;;;6.40;5.18;;;;;;;17.06;57.05;99023.63;5045194;28;20046;-72
2023/06/18 05:20:09;;;;;;;6.85;5.15;;;;;;;15.85;56.66;98813.03;5044313;28;20045;-73
2023/06/18 05:22:35;;;;;;;5.40;4.65;;;;;;;17.04;56.64;99030.09;5044321;28;20037;-73
2023/06/18 05:25:04;;;;;;;7.53;5.47;;;;;;;17.11;56.94;99033.94;5048244;28;20065;-72
2023/06/18 05:27:31;;;;;;;8.25;5.25;;;;;;;17.07;57.01;99035.19;5049066;28;20084;-73
2023/06/18 05:30:00;;;;;;;7.53;6.05;;;;;;;16.76;56.80;98987.00;5049515;28;20127;-73
2023/06/18 05:32:26;;;;;;;6.25;5.30;;;;;;;17.17;56.38;99025.38;5048888;28;20037;-73
2023/06/18 05:34:55;;;;;;;6.97;5.72;;;;;;;17.21;56.48;99034.88;5048086;28;20053;-73
2023/06/18 05:37:22;;;;;;;7.80;5.72;;;;;;;17.26;56.60;99030.78;5048959;28;20037;-72
2023/06/18 05:39:51;;;;;;;6.45;5.75;;;;;;;17.27;56.46;99035.16;5048648;28;20055;-73
2023/06/18 05:42:18;;;;;;;7.00;5.50;;;;;;;14.83;56.73;98624.97;5048716;28;20113;-73
2023/06/18 05:44:44;;;;;;;6.53;5.53;;;;;;;17.29;56.51;99035.88;5049287;28;20056;-73
2023/06/18 05:47:13;;;;;;;8.27;5.72;;;;;;;17.26;57.33;99028.13;5049253;28;20048;-73
2023/06/18 05:49:39;;;;;;;7.70;5.70;;;;;;;17.32;57.08;99026.72;5048641;28;20059;-73
2023/06/18 05:52:06;;;;;;;7.22;5.63;;;;;;;17.40;56.94;99029.59;5049158;28;20049;-72
2023/06/18 05:54:33;;;;;;;8.00;5.68;;;;;;;17.41;56.59;99028.59;5048517;28;20037;-72
2023/06/18 05:57:00;;;;;;;6.35;5.63;;;;;;;17.45;56.64;99038.06;5048464;28;20205;-72
2023/06/18 05:59:27;;;;;;;6.43;5.63;;;;;;;17.50;56.41;99035.81;5047504;28;20087;-73
2023/06/18 06:01:55;;;;;;;6.72;5.25;;;;;;;17.53;56.40;99030.19;5048911;28;20041;-73
2023/06/18 06:04:23;;;;;;;6.25;5.65;;;;;;;17.55;56.39;99025.53;5048788;28;20045;-73
2023/06/18 06:06:49;;;;;;;6.53;5.32;;;;;;;17.56;56.10;99032.59;5048837;28;20033;-72
2023/06/18 06:09:16;;;;;;;7.85;5.57;;;;;;;17.58;55.45;99022.59;5047956;28;20091;-72
2023/06/18 06:11:43;;;;;;;6.97;5.97;;;;;;;17.56;54.72;99035.28;5048222;28;20049;-72
2023/06/18 06:14:10;;;;;;;5.93;5.30;;;;;;;17.67;54.57;99030.81;5048437;28;20277;-72
2023/06/18 06:16:36;;;;;;;6.35;5.60;;;;;;;17.69;54.29;99029.69;5048651;28;20048;-72
2023/06/18 06:19:03;;;;;;;6.93;4.72;;;;;;;17.72;53.74;99029.44;5048087;28;20111;-72
2023/06/18 06:21:33;;;;;;;8.90;4.85;;;;;;;17.75;53.69;99025.63;5048591;28;20083;-72
2023/06/18 06:24:00;;;;;;;5.88;4.95;;;;;;;17.81;52.95;99025.91;5048514;28;20037;-72
2023/06/18 06:26:26;;;;;;;6.05;4.50;;;;;;;17.84;53.34;99028.31;5047842;28;20048;-72
2023/06/18 06:28:53;;;;;;;6.25;4.30;;;;;;;17.85;52.40;99029.16;5048093;28;20068;-72
2023/06/18 06:31:20;;;;;;;5.68;4.82;;;;;;;17.86;52.44;99030.88;5048204;28;20041;-73
2023/06/18 06:33:47;;;;;;;6.32;4.22;;;;;;;17.90;52.36;99025.09;5047633;28;20061;-72
2023/06/18 06:36:14;;;;;;;5.82;4.45;;;;;;;17.95;52.61;99019.31;5047493;28;20041;-73
2023/06/18 06:38:42;;;;;;;5.30;4.28;;;;;;;17.85;52.46;98995.16;5046677;28;20064;-72
2023/06/18 06:41:08;;;;;;;5.25;4.55;;;;;;;18.02;52.41;99015.09;5047592;28;20103;-72
2023/06/18 06:43:35;;;;;;;6.72;4.95;;;;;;;18.03;52.51;99022.13;5048114;28;20332;-72
2023/06/18 06:46:02;;;;;;;7.90;7.00;;;;;;;18.08;52.37;99019.03;5047806;28;20188;-72
2023/06/18 06:48:29;;;;;;;7.55;5.60;;;;;;;17.38;51.73;98897.63;5047508;28;20053;-72
2023/06/18 06:50:55;;;;;;;6.47;5.38;;;;;;;18.17;51.47;99020.88;5048036;28;20295;-72
2023/06/18 06:53:22;;;;;;;6.63;4.65;;;;;;;18.24;51.62;99013.97;5047645;28;20091;-72
2023/06/18 06:55:50;;;;;;;6.05;4.85;;;;;;;18.30;51.16;99028.66;5047855;28;20055;-72
2023/06/18 06:58:17;;;;;;;5.50;4.47;;;;;;;18.35;51.45;99021.03;5047385;28;20041;-72
2023/06/18 07:00:44;;;;;;;6.18;4.82;;;;;;;18.48;50.95;99024.25;5047878;28;20229;-72
2023/06/18 07:03:10;;;;;;;6.70;5.05;;;;;;;18.54;51.27;99024.56;5046145;28;20323;-72
2023/06/18 07:05:37;;;;;;;8.73;6.88;;;;;;;18.53;50.97;99022.88;5046860;28;20045;-72
2023/06/18 07:08:05;;;;;;;6.88;6.18;;;;;;;18.65;50.43;99025.41;5047505;28;20052;-72
2023/06/18 07:10:32;;;;;;;6.05;5.30;;;;;;;18.80;50.60;99021.28;5047544;28;20069;-73
2023/06/18 07:13:00;;;;;;;6.90;5.63;;;;;;;18.79;50.50;99024.94;5047134;28;20100;-72
2023/06/18 07:15:27;;;;;;;6.47;4.95;;;;;;;18.97;50.68;99023.22;5047154;28;20197;-72
2023/06/18 07:17:54;;;;;;;6.32;4.90;;;;;;;19.22;50.10;99024.41;5046903;28;20091;-73
2023/06/18 07:20:20;;;;;;;6.65;5.70;;;;;;;18.44;49.76;98891.38;5047126;28;20045;-72
2023/06/18 07:22:47;;;;;;;6.78;5.32;;;;;;;19.22;49.76;99025.25;5046859;28;20290;-72
2023/06/18 07:25:14;;;;;;;6.70;5.43;;;;;;;19.49;49.68;99027.13;5047061;28;20053;-73
2023/06/18 07:27:41;;;;;;;6.32;5.10;;;;;;;19.70;49.55;99026.88;5047334;28;20045;-73
2023/06/18 07:30:10;;;;;;;7.57;5.85;;;;;;;19.85;47.88;99003.91;5045836;28;20041;-73
2023/06/18 07:32:37;;;;;;;7.45;5.95;;;;;;;20.17;48.47;99018.66;5045777;28;20052;-72
2023/06/18 07:35:05;;;;;;;6.50;5.75;;;;;;;20.42;47.95;99025.16;5046779;28;20041;-72
2023/06/18 07:37:32;;;;;;;6.85;6.13;;;;;;;20.52;47.61;99020.53;5046847;28;20057;-72
2023/06/18 07:39:59;;;;;;;6.60;5.50;;;;;;;20.70;47.75;99015.97;5045531;28;20057;-73
2023/06/18 07:42:26;;;;;;;7.80;5.45;;;;;;;20.93;47.34;99023.53;5046583;28;20253;-73
2023/06/18 07:44:52;;;;;;;8.45;5.95;;;;;;;21.11;47.05;99003.63;5045606;28;20033;-73
2023/06/18 07:47:21;;;;;;;9.27;6.38;;;;;;;21.42;46.23;99016.59;5045903;28;20120;-73
2023/06/18 07:49:47;;;;;;;6.85;6.00;;;;;;;21.68;45.57;99017.38;5046653;28;20289;-72
2023/06/18 07:52:14;;;;;;;7.03;5.95;;;;;;;21.86;45.89;99016.44;5046542;28;20045;-73
2023/06/18 07:54:41;;;;;;;8.23;6.18;;;;;;;21.95;44.73;99018.16;5045326;28;20099;-72
2023/06/18 07:57:08;;;;;;;7.63;6.80;;;;;;;22.15;45.10;99011.44;5045911;28;20056;-72
2023/06/18 07:59:35;;;;;;;8.93;6.95;;;;;;;22.30;44.63;99014.31;5045347;28;20037;-72
2023/06/18 08:02:01;;;;;;;8.10;7.07;;;;;;;22.47;44.69;99010.66;5046331;28;20208;-73
2023/06/18 08:04:29;;;;;;;7.15;6.45;;;;;;;22.62;44.62;99010.84;5046048;28;20041;-72
2023/06/18 08:06:56;;;;;;;8.18;5.47;;;;;;;22.58;44.52;99014.91;5046001;28;20069;-73
2023/06/18 08:09:23;;;;;;;7.45;5.68;;;;;;;22.61;43.67;99010.00;5045690;28;20046;-73
2023/06/18 08:11:51;;;;;;;5.85;5.03;;;;;;;22.56;43.18;99011.53;5045871;28;20107;-73
2023/06/18 08:14:18;;;;;;;8.10;4.97;;;;;;;22.42;43.06;98972.50;5045783;28;20048;-73
2023/06/18 08:16:45;;;;;;;5.53;4.88;;;;;;;22.79;43.62;99014.38;5046329;28;20052;-73
2023/06/18 08:19:13;;;;;;;5.80;5.00;;;;;;;23.13;43.25;99012.28;5045480;28;20041;-73
2023/06/18 08:21:41;;;;;;;7.68;6.20;;;;;;;23.29;43.04;99000.63;5046248;28;20068;-73
2023/06/18 08:24:08;;;;;;;8.02;5.15;;;;;;;23.40;42.05;99007.50;5044700;28;20046;-73
2023/06/18 08:26:35;;;;;;;7.10;5.35;;;;;;;23.26;41.34;99004.50;5044829;28;20301;-73
2023/06/18 08:29:02;;;;;;;5.45;4.95;;;;;;;23.48;41.62;99002.91;5046286;28;20052;-74
2023/06/18 08:31:29;;;;;;;7.57;5.65;;;;;;;23.62;40.42;99001.31;5045700;28;20115;-73
2023/06/18 08:33:56;;;;;;;6.70;5.13;;;;;;;23.71;40.59;99002.13;5046135;28;20037;-74
2023/06/18 08:36:23;;;;;;;6.40;5.05;;;;;;;23.82;40.45;98996.31;5045888;28;20299;-73
2023/06/18 08:38:51;;;;;;;6.75;6.05;;;;;;;23.78;40.75;98997.69;5045760;28;20061;-74
2023/06/18 08:41:18;;;;;;;6.90;5.57;;;;;;;23.99;40.88;98996.06;5045543;28;20049;-73
2023/06/18 08:43:45;;;;;;;7.07;5.43;;;;;;;23.80;40.65;99001.06;5045457;28;20033;-73
2023/06/18 08:46:13;;;;;;;7.15;5.07;;;;;;;23.71;41.33;98994.84;5045517;28;20057;-73
2023/06/18 08:48:45;;;;;;;7.75;5.55;;;;;;;23.23;41.76;99007.53;5045275;28;20052;-73
2023/06/18 08:51:12;;;;;;;7.22;5.28;;;;;;;23.59;41.65;98991.69;5044508;28;20069;-72
2023/06/18 08:53:45;;;;;;;7.20;5.38;;;;;;;23.46;42.00;99001.41;5045212;28;20049;-73
2023/06/18 08:56:15;;;;;;;6.70;5.85;;;;;;;23.64;41.85;98958.72;5045895;28;20030;-74
2023/06/18 08:58:49;;;;;;;8.60;5.68;;;;;;;24.02;41.40;98992.16;5044931;28;20045;-73
2023/06/18 09:01:16;;;;;;;5.93;5.32;;;;;;;24.15;41.02;98988.88;5043777;28;20080;-74
2023/06/18 09:03:44;;;;;;;6.68;5.93;;;;;;;24.04;40.98;98984.72;5045700;28;20055;-74
2023/06/18 09:06:12;;;;;;;6.10;5.50;;;;;;;24.19;40.83;98985.63;5044387;28;20033;-73
2023/06/18 09:08:39;;;;;;;7.10;5.43;;;;;;;24.27;40.66;98987.44;5045814;28;20293;-73
2023/06/18 09:11:07;;;;;;;7.28;5.45;;;;;;;24.56;40.03;98982.09;5045417;28;20120;-73
2023/06/18 09:13:40;;;;;;;6.82;5.43;;;;;;;24.70;38.87;98990.47;5045666;28;20109;-73
2023/06/18 09:16:07;;;;;;;6.00;5.30;;;;;;;24.81;38.64;98987.31;5044941;28;20217;-73
2023/06/18 09:18:34;;;;;;;7.07;6.15;;;;;;;25.00;38.54;98988.66;5045969;28;20193;-74
2023/06/18 09:21:03;;;;;;;7.22;6.07;;;;;;;25.22;37.38;98974.22;5045068;28;20079;-74
2023/06/18 09:23:29;;;;;;;5.85;5.03;;;;;;;24.95;37.72;98989.22;5044827;28;20120;-74
2023/06/18 09:25:57;;;;;;;6.15;5.20;;;;;;;24.88;38.08;98986.41;5044990;28;20104;-74
2023/06/18 09:28:25;;;;;;;5.53;5.03;;;;;;;25.02;38.48;98990.19;5045423;28;20104;-74
2023/06/18 09:30:54;;;;;;;5.35;4.63;;;;;;;24.84;38.04;98992.38;5044831;28;20049;-72
2023/06/18 09:33:29;;;;;;;5.72;5.13;;;;;;;25.16;38.05;98985.81;5045245;28;20100;-72
2023/06/18 09:36:00;;;;;;;7.28;5.68;;;;;;;24.62;38.46;98875.72;5045444;28;20053;-73
2023/06/18 09:38:36;;;;;;;5.68;5.10;;;;;;;25.40;37.73;98980.13;5044440;28;20049;-73
2023/06/18 09:41:10;;;;;;;7.60;6.28;;;;;;;25.31;37.47;98974.94;5044997;28;20396;-73
2023/06/18 09:43:38;;;;;;;5.93;5.38;;;;;;;25.37;38.08;98976.94;5045410;28;20091;-73
2023/06/18 09:46:07;;;;;;;7.47;6.65;;;;;;;25.48;37.43;98965.63;5044066;28;20053;-73
2023/06/18 09:48:35;;;;;;;7.13;6.43;;;;;;;25.51;38.02;98965.22;5044826;28;20045;-73
2023/06/18 09:51:02;;;;;;;7.07;6.38;;;;;;;25.57;37.85;98959.88;5045101;28;20103;-73
2023/06/18 09:53:29;;;;;;;7.43;5.75;;;;;;;25.49;37.43;98961.88;5044749;28;20053;-73
2023/06/18 09:56:08;;;;;;;6.72;5.85;;;;;;;25.54;37.91;98964.84;5044712;28;20041;-73
2023/06/18 09:58:41;;;;;;;6.88;6.18;;;;;;;25.73;37.30;98963.41;5044194;28;20187;-74
2023/06/18 10:01:10;;;;;;;7.80;5.80;;;;;;;25.79;37.72;98965.34;5045260;28;20084;-74
2023/06/18 10:03:37;;;;;;;13.50;5.72;;;;;;;25.77;37.25;98954.69;5043745;28;20570;-74
2023/06/18 10:06:12;;;;;;;6.55;5.85;;;;;;;25.53;37.80;98965.88;5044971;28;20051;-73
2023/06/18 10:08:42;;;;;;;8.20;6.10;;;;;;;25.22;38.20;98961.50;5045208;28;20045;-73
2023/06/18 10:11:10;;;;;;;7.63;6.55;;;;;;;25.48;38.48;98965.63;5046705;28;20041;-73
2023/06/18 10:13:42;;;;;;;7.00;5.97;;;;;;;25.69;38.20;98962.94;5048638;28;20048;-72
2023/06/18 10:16:13;;;;;;;6.65;5.65;;;;;;;25.62;38.08;98958.47;5048108;28;20343;-72
2023/06/18 10:18:46;;;;;;;6.70;6.03;;;;;;;25.73;37.80;98956.09;5047112;28;20045;-72
2023/06/18 10:21:14;;;;;;;9.97;6.50;;;;;;;25.57;37.04;98908.34;5048615;28;20049;-71
2023/06/18 10:23:42;;;;;;;7.93;6.43;;;;;;;25.88;36.83;98947.91;5048157;28;20423;-72
2023/06/18 10:26:10;;;;;;;6.57;5.85;;;;;;;25.55;37.60;98950.25;5047969;28;20075;-73
2023/06/18 10:28:38;;;;;;;7.15;5.75;;;;;;;25.78;37.45;98955.53;5048516;28;20120;-72
2023/06/18 10:31:06;;;;;;;6.53;5.93;;;;;;;25.84;37.11;98955.59;5048100;28;20049;-72
2023/06/18 10:33:36;;;;;;;7.32;6.43;;;;;;;25.83;36.56;98956.63;5048266;28;20037;-72
2023/06/18 10:36:03;;;;;;;7.70;6.85;;;;;;;25.82;36.06;98952.25;5048034;28;20117;-72
2023/06/18 10:38:31;;;;;;;6.85;6.15;;;;;;;25.81;36.50;98956.00;5047711;28;20321;-73
2023/06/18 10:41:08;;;;;;;7.60;6.35;;;;;;;25.42;37.32;98950.94;5048089;28;20133;-73
2023/06/18 10:43:39;;;;;;;7.63;6.82;;;;;;;25.57;37.24;98959.88;5047861;28;20060;-72
2023/06/18 10:46:09;;;;;;;6.85;6.25;;;;;;;25.61;37.15;98946.78;5048131;28;20034;-73
2023/06/18 10:48:38;;;;;;;7.90;6.25;;;;;;;25.71;37.09;98952.75;5047414;28;20107;-73
2023/06/18 10:51:15;;;;;;;8.98;6.63;;;;;;;25.78;36.87;98928.38;5047738;28;20068;-73
2023/06/18 10:53:43;;;;;;;6.57;5.97;;;;;;;26.10;36.91;98944.22;5048011;28;20055;-73
2023/06/18 10:56:10;;;;;;;7.32;6.60;;;;;;;26.33;35.97;98945.88;5047249;28;20083;-73
2023/06/18 10:58:38;;;;;;;7.90;6.28;;;;;;;25.71;35.89;98832.50;5047474;28;20033;-73
2023/06/18 11:01:05;;;;;;;6.40;5.80;;;;;;;26.28;35.37;98951.06;5046305;28;20060;-73
2023/06/18 11:03:36;;;;;;;7.05;6.35;;;;;;;26.26;36.48;98945.81;5047703;28;20165;-72
2023/06/18 11:06:09;;;;;;;7.13;6.05;;;;;;;26.16;36.87;98937.16;5047134;28;20104;-73
2023/06/18 11:08:37;;;;;;;10.18;6.20;;;;;;;26.10;35.99;98944.22;5046214;28;20049;-74
2023/06/18 11:11:06;;;;;;;6.78;6.07;;;;;;;26.21;35.66;98932.84;5047132;28;20197;-73
2023/06/18 11:13:37;;;;;;;6.38;5.78;;;;;;;26.14;36.04;98925.66;5047588;28;20049;-73
2023/06/18 11:16:14;;;;;;;6.20;5.60;;;;;;;26.31;36.16;98937.94;5046950;28;20307;-72
2023/06/18 11:18:42;;;;;;;6.63;5.93;;;;;;;26.41;35.73;98935.72;5047528;28;20042;-73
2023/06/18 11:21:15;;;;;;;6.50;5.80;;;;;;;25.62;33.28;98820.09;5046450;28;20045;-72
2023/06/18 11:23:42;;;;;;;;;;;;;;;26.30;33.54;98924.56;5047924;28;20038;-72
2023/06/18 11:26:14;;;;;;;6.72;5.45;;;;;;;26.23;33.43;98922.63;5045968;28;20171;-73
2023/06/18 11:28:42;;;;;;;8.30;5.43;;;;;;;26.39;35.30;98932.38;5047072;28;20198;-78
2023/06/18 11:31:09;;;;;;;6.93;5.53;;;;;;;26.14;34.50;98893.06;5047391;28;20049;-74
2023/06/18 11:33:36;;;;;;;7.05;6.32;;;;;;;26.39;35.85;98926.09;5046731;28;20103;-74
2023/06/18 11:36:12;;;;;;;8.60;7.03;;;;;;;26.58;33.54;98925.41;5046700;28;20045;-74
2023/06/18 11:38:40;;;;;;;10.27;8.95;;;;;;;26.40;32.18;98896.00;5045483;28;20061;-75